Time;durP1;ratioP1;P1;durP2;ratioP2;P2;SDS_P1;SDS_P2;PMS_P1;PMS_P2;Temp;Humidity;BMP_temperature;BMP_pressure;BME280_temperature;BME280_humidity;BME280_pressure;Samples;Min_cycle;Max_cycle;Signal;HPM_P1;HPM_P2
2022/02/15 00:00:50;;;;;;;3.85;1.25;;;;;;;3.62;91.16;99918.22;4933831;28;20028;-73
2022/02/15 00:03:16;;;;;;;3.33;0.95;;;;;;;3.61;91.74;99921.97;4958263;28;20397;-74
2022/02/15 00:05:42;;;;;;;2.63;1.00;;;;;;;3.60;91.26;99920.31;4941648;28;20028;-74
2022/02/15 00:08:07;;;;;;;2.30;1.00;;;;;;;3.63;91.35;99936.06;4952520;28;20027;-72
2022/02/15 00:10:33;;;;;;;11.55;2.45;;;;;;;3.69;91.00;99949.75;4967078;28;20486;-74
2022/02/15 00:13:02;;;;;;;1.63;1.52;;;;;;;3.65;91.40;99950.22;4942254;28;20092;-72
2022/02/15 00:15:35;;;;;;;2.42;0.68;;;;;;;3.60;91.55;99930.31;4951075;28;20027;-71
2022/02/15 00:18:03;;;;;;;0.88;0.75;;;;;;;3.60;91.56;99928.44;4948080;28;20027;-72
2022/02/15 00:20:28;;;;;;;2.95;1.13;;;;;;;3.57;91.38;99920.78;4942139;29;20023;-73
2022/02/15 00:22:56;;;;;;;3.50;1.08;;;;;;;3.58;90.89;99927.84;4950675;28;20063;-72
2022/02/15 00:25:22;;;;;;;3.13;1.33;;;;;;;3.57;90.56;99923.50;4947887;28;20034;-72
2022/02/15 00:27:58;;;;;;;;;;;;;;;;;;;;;
2022/02/15 00:30:24;;;;;;;3.88;0.73;;;;;;;3.62;91.25;99941.72;4941975;28;20026;-73
2022/02/15 00:32:49;;;;;;;3.33;1.48;;;;;;;3.59;90.81;99945.72;4956984;28;20031;-72
2022/02/15 00:35:15;;;;;;;4.57;1.05;;;;;;;3.54;90.86;99940.19;4949844;29;20501;-74
2022/02/15 00:37:41;;;;;;;2.63;1.20;;;;;;;3.52;90.46;99950.41;4950251;28;20031;-73
2022/02/15 00:40:10;;;;;;;6.22;1.67;;;;;;;3.42;90.96;99945.56;4941442;28;20063;-72
2022/02/15 00:42:35;;;;;;;2.75;1.00;;;;;;;3.49;91.17;99943.59;4946283;28;20031;-72
2022/02/15 00:45:03;;;;;;;1.42;1.05;;;;;;;3.39;90.87;99939.78;4952182;28;20118;-72
2022/02/15 00:47:29;;;;;;;2.88;1.05;;;;;;;3.38;90.82;99938.16;4948152;28;20023;-75
2022/02/15 00:49:57;;;;;;;2.40;0.98;;;;;;;3.48;90.61;99965.44;4938397;28;20481;-71
2022/02/15 00:52:33;;;;;;;;;;;;;;;;;;;;;
2022/02/15 00:55:02;;;;;;;4.13;1.45;;;;;;;3.39;91.15;99942.47;4951999;28;20023;-73
2022/02/15 00:57:35;;;;;;;1.00;0.63;;;;;;;3.43;91.15;99962.59;4952833;28;20090;-73
2022/02/15 01:00:00;;;;;;;3.35;1.15;;;;;;;3.38;91.56;99951.66;4952222;28;20034;-74
2022/02/15 01:02:31;;;;;;;1.75;1.05;;;;;;;3.40;91.43;99955.78;4951444;28;20051;-74
2022/02/15 01:04:56;;;;;;;2.38;1.25;;;;;;;3.38;91.28;99943.56;4953203;28;20036;-73
2022/02/15 01:07:26;;;;;;;5.32;1.40;;;;;;;3.39;91.18;99961.41;4946122;28;20383;-73
2022/02/15 01:09:52;;;;;;;1.88;0.63;;;;;;;3.25;91.20;99945.38;4935359;29;20035;-72
2022/02/15 01:12:17;;;;;;;5.78;1.05;;;;;;;3.32;91.33;99954.22;4968472;28;20034;-73
2022/02/15 01:14:43;;;;;;;12.65;1.42;;;;;;;3.32;91.53;99961.50;4952908;28;20038;-73
2022/02/15 01:17:08;;;;;;;4.75;0.85;;;;;;;3.25;91.77;99956.19;4951976;28;20038;-73
2022/02/15 01:19:34;;;;;;;6.03;1.35;;;;;;;3.23;91.61;99954.78;4949285;28;20078;-73
2022/02/15 01:22:00;;;;;;;4.07;1.10;;;;;;;3.25;91.77;99958.88;4949863;28;20460;-74
2022/02/15 01:24:25;;;;;;;2.83;0.85;;;;;;;3.32;92.35;99973.13;4940947;28;20086;-73
2022/02/15 01:26:51;;;;;;;2.38;0.73;;;;;;;3.37;92.14;99972.44;4951742;28;20035;-73
2022/02/15 01:29:16;;;;;;;6.88;2.47;;;;;;;3.36;92.70;99967.25;4940645;28;20183;-74
2022/02/15 01:31:42;;;;;;;7.65;1.40;;;;;;;3.35;92.52;99971.03;4951775;28;20051;-71
2022/02/15 01:34:07;;;;;;;2.80;1.17;;;;;;;3.42;92.63;99977.19;4946211;28;20119;-75
2022/02/15 01:36:33;;;;;;;4.50;0.95;;;;;;;3.39;92.78;99973.06;4954366;28;20039;-73
2022/02/15 01:38:58;;;;;;;7.20;0.70;;;;;;;3.43;92.78;99987.78;4963590;28;20028;-72
2022/02/15 01:41:24;;;;;;;2.15;0.88;;;;;;;3.43;92.49;99986.91;4951004;28;20498;-72
2022/02/15 01:43:51;;;;;;;9.50;1.42;;;;;;;3.39;92.12;99988.44;4950445;28;20039;-72
2022/02/15 01:46:16;;;;;;;4.28;0.70;;;;;;;3.39;92.30;99988.44;4950946;28;20079;-73
2022/02/15 01:48:46;;;;;;;6.53;0.80;;;;;;;3.37;92.20;99988.66;4947236;28;20960;-72
2022/02/15 01:51:12;;;;;;;3.55;0.77;;;;;;;3.27;92.16;99967.59;4951338;28;20023;-72
2022/02/15 01:53:38;;;;;;;2.00;0.75;;;;;;;3.38;92.52;99978.69;4967083;28;20046;-71
2022/02/15 01:56:07;;;;;;;6.47;1.00;;;;;;;3.35;92.22;99982.66;4920028;29;20090;-72
2022/02/15 01:58:33;;;;;;;3.55;0.73;;;;;;;3.31;92.76;99976.91;4962352;28;20038;-72
2022/02/15 02:00:58;;;;;;;9.70;1.23;;;;;;;3.22;92.17;99962.06;4967033;28;20023;-71
2022/02/15 02:03:26;;;;;;;2.13;0.50;;;;;;;3.22;92.45;99967.47;4965029;28;20039;-72
2022/02/15 02:05:51;;;;;;;1.73;0.50;;;;;;;3.21;92.80;99960.41;4947246;28;20038;-72
2022/02/15 02:08:19;;;;;;;1.75;0.68;;;;;;;3.23;92.39;99969.13;4954616;28;20195;-72
2022/02/15 02:10:46;;;;;;;3.85;0.88;;;;;;;3.27;92.91;99980.28;4953436;28;20109;-71
2022/02/15 02:13:12;;;;;;;1.30;0.60;;;;;;;3.29;92.83;99983.59;4973294;28;20035;-74
2022/02/15 02:15:38;;;;;;;10.75;0.80;;;;;;;3.17;92.46;99964.63;4949931;28;20030;-72
2022/02/15 02:18:05;;;;;;;1.00;0.70;;;;;;;3.16;92.58;99979.19;4954220;28;20023;-73
2022/02/15 02:20:34;;;;;;;4.57;0.50;;;;;;;3.16;92.04;99976.47;4948424;28;20035;-73
2022/02/15 02:22:59;;;;;;;7.60;1.65;;;;;;;3.07;92.58;99972.47;4954905;28;20540;-71
2022/02/15 02:25:28;;;;;;;6.63;0.70;;;;;;;3.09;92.33;99979.25;4952659;28;20035;-72
2022/02/15 02:27:54;;;;;;;6.28;0.75;;;;;;;3.01;92.52;99965.22;4947629;28;20041;-72
2022/02/15 02:30:25;;;;;;;6.13;0.98;;;;;;;3.05;92.64;99977.25;4963668;28;20043;-73
2022/02/15 02:32:50;;;;;;;4.47;0.77;;;;;;;2.94;92.71;99960.75;4966674;28;20450;-72
2022/02/15 02:35:19;;;;;;;7.75;1.42;;;;;;;3.04;92.67;99970.19;4947815;28;20040;-72
2022/02/15 02:37:44;;;;;;;5.00;1.73;;;;;;;3.02;92.25;99975.81;4963505;28;20062;-71
2022/02/15 02:40:19;;;;;;;6.20;1.33;;;;;;;2.97;92.36;99965.69;4950182;28;20070;-71
2022/02/15 02:42:50;;;;;;;3.88;0.88;;;;;;;3.04;92.98;99970.19;4952239;28;20090;-73
2022/02/15 02:45:19;;;;;;;9.77;0.73;;;;;;;3.03;93.22;99968.56;4952746;28;20384;-73
2022/02/15 02:47:56;;;;;;;6.55;0.75;;;;;;;2.93;92.55;99947.47;4960600;28;20027;-73
2022/02/15 02:50:30;;;;;;;7.30;0.90;;;;;;;3.03;92.56;99957.75;4948058;28;20027;-75
2022/02/15 02:52:58;;;;;;;9.10;0.70;;;;;;;3.03;93.31;99957.75;4956824;28;20027;-75
2022/02/15 02:55:25;;;;;;;7.07;1.30;;;;;;;3.03;93.00;99953.16;4947927;28;20055;-72
2022/02/15 02:57:50;;;;;;;6.55;1.08;;;;;;;2.95;92.49;99930.00;4948054;28;20027;-72
2022/02/15 03:00:18;;;;;;;1.05;0.52;;;;;;;3.03;92.90;99947.75;4953000;28;20035;-71
2022/02/15 03:02:44;;;;;;;1.55;0.60;;;;;;;3.04;92.78;99956.66;4967221;28;20083;-73
2022/02/15 03:05:12;;;;;;;5.45;0.55;;;;;;;2.93;93.01;99929.38;4949729;28;20054;-72
2022/02/15 03:07:38;;;;;;;6.90;1.02;;;;;;;2.96;92.80;99925.41;4947176;28;20122;-73
2022/02/15 03:10:04;;;;;;;3.08;0.50;;;;;;;3.02;92.62;99939.88;4951347;28;20031;-72
2022/02/15 03:12:30;;;;;;;1.85;0.40;;;;;;;2.95;92.44;99913.78;4954195;28;20030;-72
2022/02/15 03:14:55;;;;;;;2.20;0.60;;;;;;;3.08;93.47;99938.97;4952590;28;20122;-72
2022/02/15 03:17:21;;;;;;;4.57;0.40;;;;;;;3.10;92.71;99926.06;4944103;28;20426;-72
2022/02/15 03:19:46;;;;;;;3.85;0.40;;;;;;;3.13;92.90;99925.59;4944095;28;20039;-71
2022/02/15 03:22:12;;;;;;;2.92;0.68;;;;;;;3.11;92.54;99923.13;4946454;29;20044;-74
2022/02/15 03:24:38;;;;;;;5.78;0.77;;;;;;;3.14;92.57;99919.97;4947445;23;20085;-73
2022/02/15 03:27:03;;;;;;;2.13;0.60;;;;;;;3.13;92.92;99920.19;4948783;28;20032;-72
2022/02/15 03:29:29;;;;;;;1.10;0.80;;;;;;;3.07;92.49;99894.09;4953853;28;20039;-72
2022/02/15 03:31:54;;;;;;;3.90;0.40;;;;;;;3.19;92.60;99911.16;4953584;28;20039;-71
2022/02/15 03:34:20;;;;;;;1.08;0.82;;;;;;;3.24;93.27;99905.91;4936032;29;20038;-73
2022/02/15 03:36:46;;;;;;;2.83;0.55;;;;;;;3.29;93.35;99897.94;4951073;28;20059;-73
2022/02/15 03:39:14;;;;;;;0.52;0.52;;;;;;;3.37;93.61;99898.66;4938458;28;20031;-74
2022/02/15 03:44:25;;;;;;;0.88;0.43;;;;;;;3.37;92.84;99885.13;4934936;28;20081;-75
2022/02/15 03:46:52;;;;;;;0.95;0.50;;;;;;;3.31;92.62;99886.88;4946127;28;20153;-72
2022/02/15 03:49:18;;;;;;;0.85;0.60;;;;;;;3.35;91.86;99895.38;4947499;28;20031;-72
2022/02/15 03:51:46;;;;;;;4.13;0.93;;;;;;;3.30;92.51;99888.78;4947428;28;20068;-73
2022/02/15 03:54:12;;;;;;;2.70;0.28;;;;;;;3.26;92.21;99884.88;4950266;28;20047;-73
2022/02/15 03:56:37;;;;;;;0.95;0.60;;;;;;;3.29;92.11;99884.41;4954490;28;20031;-76
2022/02/15 03:59:04;;;;;;;1.75;0.75;;;;;;;3.35;92.45;99903.47;4937378;28;20470;-74
2022/02/15 04:01:30;;;;;;;5.80;0.63;;;;;;;3.32;92.53;99900.16;4954248;28;20035;-72
2022/02/15 04:03:56;;;;;;;3.85;1.10;;;;;;;3.33;92.42;99901.00;4953845;28;20035;-74
2022/02/15 04:06:21;;;;;;;2.70;1.10;;;;;;;3.28;92.64;99903.56;4953710;28;20055;-74
2022/02/15 04:09:00;;;;;;;4.40;0.88;;;;;;;3.28;92.95;99909.78;4958731;28;20385;-74
2022/02/15 04:11:26;;;;;;;5.57;1.02;;;;;;;3.24;92.65;99905.91;4954229;28;20027;-74
2022/02/15 04:13:59;;;;;;;2.30;0.38;;;;;;;3.19;92.79;99891.44;4940724;29;20094;-74
2022/02/15 04:16:25;;;;;;;2.90;1.00;;;;;;;3.23;93.00;99893.44;4946280;29;20082;-72
2022/02/15 04:18:52;;;;;;;2.50;0.70;;;;;;;3.32;92.30;99892.06;4917068;29;20458;-75
2022/02/15 04:21:20;;;;;;;0.98;0.50;;;;;;;3.25;92.84;99880.53;4956190;28;20367;-75
2022/02/15 04:23:54;;;;;;;4.43;0.75;;;;;;;3.30;92.87;99875.25;4952596;28;20094;-75
2022/02/15 04:26:29;;;;;;;2.65;1.10;;;;;;;3.40;92.95;99892.78;4928842;28;20201;-75
2022/02/15 04:28:55;;;;;;;4.63;0.55;;;;;;;3.38;93.67;99894.91;4943227;29;20024;-75
2022/02/15 04:31:20;;;;;;;8.15;0.77;;;;;;;3.37;92.55;99893.25;4941299;29;20529;-74
2022/02/15 04:33:48;;;;;;;2.15;0.60;;;;;;;3.45;92.78;99895.63;4955260;28;20497;-74
2022/02/15 04:36:16;;;;;;;3.83;1.00;;;;;;;3.47;93.35;99885.38;4941675;29;20117;-75
2022/02/15 04:38:42;;;;;;;1.70;1.40;;;;;;;3.53;93.56;99876.34;4955480;28;20102;-75
2022/02/15 04:41:07;;;;;;;0.98;0.63;;;;;;;3.55;93.22;99879.66;4928752;29;20126;-74
2022/02/15 04:43:33;;;;;;;2.08;0.30;;;;;;;3.59;93.80;99880.84;4930030;28;20086;-74
2022/02/15 04:45:59;;;;;;;5.78;0.73;;;;;;;3.67;93.29;99888.59;4925155;29;20023;-74
2022/02/15 04:48:24;;;;;;;13.73;0.98;;;;;;;3.63;93.09;99868.47;4955279;28;20030;-72
2022/02/15 04:50:50;;;;;;;7.47;1.17;;;;;;;3.77;93.54;99865.56;4946299;28;20035;-72
2022/02/15 04:53:16;;;;;;;1.63;0.75;;;;;;;3.94;93.92;99866.50;4952595;28;20065;-74
2022/02/15 04:55:42;;;;;;;2.92;0.40;;;;;;;4.07;94.05;99859.19;4956654;28;20360;-75
2022/02/15 04:58:08;;;;;;;6.70;1.10;;;;;;;4.13;93.92;99855.53;4950934;28;20046;-75
2022/02/15 05:00:36;;;;;;;4.60;0.77;;;;;;;4.21;93.97;99852.47;4947798;28;20762;-75
2022/02/15 05:03:02;;;;;;;8.80;1.40;;;;;;;4.29;94.55;99851.28;4929187;28;20031;-75
2022/02/15 05:05:27;;;;;;;7.43;0.57;;;;;;;4.31;94.28;99843.75;4955397;28;20446;-75
2022/02/15 05:07:53;;;;;;;3.13;0.63;;;;;;;4.35;94.23;99845.75;4930596;29;20529;-75
2022/02/15 05:10:18;;;;;;;0.30;0.20;;;;;;;4.53;94.67;99852.06;4951780;28;20162;-77
2022/02/15 05:12:51;;;;;;;6.88;1.27;;;;;;;4.52;94.68;99839.56;4930730;28;20027;-78
2022/02/15 05:15:16;;;;;;;1.23;0.20;;;;;;;4.67;94.12;99856.13;4935961;28;20029;-76
2022/02/15 05:17:46;;;;;;;0.55;0.38;;;;;;;4.79;94.56;99850.66;4947776;28;20100;-76
2022/02/15 05:20:15;;;;;;;1.85;0.40;;;;;;;4.86;93.82;99853.22;4948308;28;20043;-76
2022/02/15 05:22:40;;;;;;;1.05;0.50;;;;;;;4.82;94.16;99824.97;4956913;28;20044;-75
2022/02/15 05:25:06;;;;;;;0.52;0.30;;;;;;;4.90;93.43;99835.41;4930837;29;20048;-74
2022/02/15 05:27:32;;;;;;;5.07;0.45;;;;;;;4.82;93.93;99816.84;4934022;29;20095;-75
2022/02/15 05:29:58;;;;;;;5.90;0.30;;;;;;;4.85;93.67;99816.38;4929956;29;20064;-76
2022/02/15 05:32:23;;;;;;;0.52;0.40;;;;;;;4.89;93.37;99833.75;4930435;29;20030;-76
2022/02/15 05:34:49;;;;;;;0.98;0.50;;;;;;;4.88;93.34;99822.13;4934469;29;20599;-76
2022/02/15 05:37:17;;;;;;;1.52;0.63;;;;;;;4.79;93.48;99806.47;4935903;29;20031;-74
2022/02/15 05:39:43;;;;;;;1.25;1.10;;;;;;;4.81;93.77;99801.66;4950280;28;20054;-74
2022/02/15 05:42:08;;;;;;;2.45;0.68;;;;;;;4.83;93.91;99794.09;4927163;29;20063;-74
2022/02/15 05:44:34;;;;;;;11.65;2.45;;;;;;;4.81;93.77;99799.78;4924983;29;20040;-74
2022/02/15 05:47:05;;;;;;;4.05;0.80;;;;;;;4.82;94.07;99790.59;4911377;29;20036;-75
2022/02/15 05:49:30;;;;;;;2.10;0.70;;;;;;;4.81;94.49;99761.84;4947482;28;20036;-74
2022/02/15 05:51:55;;;;;;;9.93;1.70;;;;;;;4.93;94.84;99783.44;4937100;29;20028;-73
2022/02/15 05:54:21;;;;;;;8.90;0.63;;;;;;;4.92;94.82;99783.69;4936447;29;20059;-74
2022/02/15 05:56:46;;;;;;;9.98;1.05;;;;;;;4.91;94.61;99782.88;4949787;28;20020;-73
2022/02/15 05:59:14;;;;;;;5.30;1.25;;;;;;;4.91;94.14;99791.00;4934396;29;20027;-74
2022/02/15 06:01:40;;;;;;;7.05;1.13;;;;;;;4.94;95.05;99790.50;4935856;29;20028;-74
2022/02/15 06:04:10;;;;;;;4.18;1.05;;;;;;;5.01;94.51;99788.47;4948338;28;20035;-73
2022/02/15 06:06:37;;;;;;;19.58;1.08;;;;;;;5.13;95.61;99811.97;4936224;28;20032;-73
2022/02/15 06:09:05;;;;;;;9.15;1.25;;;;;;;5.13;94.83;99790.28;4934545;29;20036;-74
2022/02/15 06:11:31;;;;;;;6.35;0.90;;;;;;;5.29;95.32;99816.59;4932041;29;20031;-72
2022/02/15 06:13:57;;;;;;;8.52;0.80;;;;;;;5.30;95.01;99803.84;4924194;29;20083;-73
2022/02/15 06:16:23;;;;;;;2.60;0.98;;;;;;;5.47;96.20;99806.56;4934563;29;20123;-74
2022/02/15 06:18:56;;;;;;;9.90;0.95;;;;;;;5.53;96.12;99805.56;4919172;29;20070;-74
2022/02/15 06:21:25;;;;;;;7.32;1.55;;;;;;;5.54;95.75;99785.53;4933012;29;20031;-73
2022/02/15 06:23:51;;;;;;;6.85;1.23;;;;;;;5.62;95.54;99790.50;4938778;28;20127;-73
2022/02/15 06:26:17;;;;;;;11.85;1.10;;;;;;;5.63;95.52;99767.75;4940073;28;20063;-74
2022/02/15 06:28:50;;;;;;;18.23;1.27;;;;;;;5.74;95.94;99769.53;4928360;29;20039;-73
2022/02/15 06:31:16;;;;;;;9.15;1.70;;;;;;;5.83;96.19;99774.53;4939355;29;20024;-72
2022/02/15 06:33:43;;;;;;;11.70;1.48;;;;;;;5.81;95.75;99774.78;4953564;28;20074;-73
2022/02/15 06:36:12;;;;;;;8.23;0.90;;;;;;;5.87;96.16;99781.09;4949902;28;20027;-72
2022/02/15 06:38:38;;;;;;;7.00;0.90;;;;;;;5.87;96.26;99770.22;4946165;28;20023;-74
2022/02/15 06:41:06;;;;;;;6.80;1.08;;;;;;;5.97;96.27;99789.41;4955518;28;20693;-74
2022/02/15 06:43:32;;;;;;;6.97;1.00;;;;;;;5.98;95.75;99772.03;4958525;28;20030;-74
2022/02/15 06:45:57;;;;;;;4.97;0.73;;;;;;;6.02;96.26;99781.34;4952418;28;20020;-74
2022/02/15 06:48:23;;;;;;;8.85;1.42;;;;;;;6.13;95.71;99781.47;4942794;28;20171;-74
2022/02/15 06:50:50;;;;;;;10.45;0.93;;;;;;;6.16;96.41;99764.66;4937748;28;20023;-74
2022/02/15 06:53:17;;;;;;;4.68;0.80;;;;;;;6.17;96.04;99760.88;4954365;28;20039;-74
2022/02/15 06:55:42;;;;;;;5.63;1.15;;;;;;;6.15;96.13;99753.00;4941604;28;20043;-72
2022/02/15 06:58:11;;;;;;;5.85;0.77;;;;;;;6.16;95.78;99742.94;4956537;28;20082;-72
2022/02/15 07:00:38;;;;;;;13.90;0.75;;;;;;;6.11;95.59;99727.44;4939625;29;20066;-72
2022/02/15 07:03:04;;;;;;;8.52;1.02;;;;;;;6.10;95.83;99745.63;4919465;28;20038;-74
2022/02/15 07:05:29;;;;;;;8.45;1.02;;;;;;;5.94;94.68;99724.75;4956160;28;20122;-73
2022/02/15 07:07:57;;;;;;;8.55;1.15;;;;;;;5.98;95.19;99734.06;4949602;28;20418;-75
2022/02/15 07:10:23;;;;;;;13.13;1.55;;;;;;;5.93;95.61;99725.81;4947264;28;20114;-77
2022/02/15 07:12:51;;;;;;;17.15;1.58;;;;;;;5.87;95.24;99713.25;4905904;29;20058;-74
2022/02/15 07:15:16;;;;;;;10.52;1.35;;;;;;;5.92;95.20;99721.47;4948144;28;20368;-74
2022/02/15 07:17:44;;;;;;;10.18;0.88;;;;;;;5.84;95.23;99702.91;4949566;28;20050;-73
2022/02/15 07:20:10;;;;;;;13.70;1.77;;;;;;;5.93;96.26;99712.25;4915971;28;20027;-71
2022/02/15 07:22:37;;;;;;;5.63;1.27;;;;;;;5.93;95.88;99709.53;4955904;28;20102;-76
2022/02/15 07:25:03;;;;;;;12.05;1.25;;;;;;;5.96;95.52;99711.75;4937917;29;20052;-75
2022/02/15 07:27:29;;;;;;;6.40;0.98;;;;;;;5.94;95.40;99712.00;4938944;29;20035;-73
2022/02/15 07:29:55;;;;;;;9.60;1.30;;;;;;;5.94;96.00;99703.03;4932874;29;20037;-72
2022/02/15 07:32:24;;;;;;;19.90;2.03;;;;;;;5.96;95.71;99700.91;4933516;29;20106;-73
2022/02/15 07:34:54;;;;;;;13.57;1.83;;;;;;;5.96;96.05;99706.31;4933804;29;20027;-71
2022/02/15 07:37:20;;;;;;;8.98;1.90;;;;;;;5.98;96.34;99709.63;4934955;29;20546;-74
2022/02/15 07:39:46;;;;;;;17.92;2.20;;;;;;;6.03;96.19;99706.97;4920587;29;20032;-72
2022/02/15 07:42:12;;;;;;;16.00;1.50;;;;;;;6.07;96.12;99702.66;4934837;29;20530;-74
2022/02/15 07:44:38;;;;;;;15.45;2.15;;;;;;;6.14;96.19;99707.09;4932538;29;20044;-73
2022/02/15 07:47:04;;;;;;;10.02;1.58;;;;;;;6.15;97.13;99698.69;4941062;28;20032;-74
2022/02/15 07:49:31;;;;;;;20.63;2.55;;;;;;;6.20;96.99;99700.66;4932634;29;20370;-74
2022/02/15 07:51:58;;;;;;;7.85;2.45;;;;;;;6.29;97.17;99709.97;4916221;29;20026;-76
2022/02/15 07:54:39;;;;;;;;;;;;;;;;;;;;;
2022/02/15 07:57:08;;;;;;;15.13;1.27;;;;;;;6.46;97.25;99702.53;4932871;29;20117;-74
2022/02/15 07:59:33;;;;;;;13.48;1.55;;;;;;;6.64;96.76;99712.25;4953918;28;20119;-75
2022/02/15 08:02:02;;;;;;;18.02;2.22;;;;;;;6.68;97.03;99690.00;4940108;29;20071;-77
2022/02/15 08:04:30;;;;;;;20.17;1.77;;;;;;;6.79;97.96;99702.56;4934235;29;20028;-75
2022/02/15 08:06:59;;;;;;;7.97;1.58;;;;;;;6.87;97.51;99706.72;4937774;29;20032;-75
2022/02/15 08:09:27;;;;;;;11.30;1.35;;;;;;;6.96;97.70;99675.25;4934774;29;20020;-75
2022/02/15 08:11:55;;;;;;;18.40;1.85;;;;;;;7.02;97.62;99685.09;4938306;29;20023;-76
2022/02/15 08:14:25;;;;;;;22.35;1.80;;;;;;;7.11;98.22;99694.41;4907057;29;20122;-75
2022/02/15 08:16:54;;;;;;;11.13;1.92;;;;;;;7.31;97.99;99695.63;4940212;29;20727;-74
2022/02/15 08:19:26;;;;;;;19.02;2.30;;;;;;;7.40;97.63;99696.75;4935407;29;20111;-75
2022/02/15 08:21:59;;;;;;;5.45;1.33;;;;;;;7.55;98.11;99697.94;4937265;29;20043;-75
2022/02/15 08:24:31;;;;;;;19.92;1.35;;;;;;;7.60;98.27;99697.97;4949330;28;20374;-75
2022/02/15 08:26:57;;;;;;;23.40;2.55;;;;;;;7.63;98.28;99694.72;4949836;28;20359;-74
2022/02/15 08:29:33;;;;;;;26.42;2.72;;;;;;;7.61;97.89;99686.03;4955780;28;20061;-74
2022/02/15 08:32:05;;;;;;;14.23;2.55;;;;;;;7.84;98.04;99691.03;4936341;28;20462;-77
2022/02/15 08:34:32;;;;;;;12.18;2.13;;;;;;;7.91;98.49;99679.06;4955021;28;20039;-75
2022/02/15 08:37:02;;;;;;;17.85;2.33;;;;;;;7.95;98.25;99663.84;4929346;28;20118;-75
2022/02/15 08:39:28;;;;;;;14.77;2.03;;;;;;;8.08;98.23;99671.50;4932653;28;20572;-75
2022/02/15 08:42:06;;;;;;;25.50;2.60;;;;;;;8.14;98.18;99656.00;4933083;28;20031;-76
2022/02/15 08:44:34;;;;;;;24.48;2.97;;;;;;;8.16;98.08;99637.47;4919017;28;20074;-77
2022/02/15 08:47:16;;;;;;;;;;;;;;;;;;;;;
2022/02/15 08:49:49;;;;;;;20.45;3.22;;;;;;;8.21;97.52;99616.50;4951998;28;20026;-78
2022/02/15 08:52:15;;;;;;;19.23;2.67;;;;;;;8.35;97.19;99626.88;4948874;28;20497;-75
2022/02/15 08:54:43;;;;;;;31.95;3.38;;;;;;;8.42;97.14;99613.00;4958186;28;20043;-76
2022/02/15 08:57:15;;;;;;;17.17;2.17;;;;;;;8.49;97.57;99628.00;4951709;28;20482;-77
2022/02/15 09:02:30;;;;;;;13.07;2.72;;;;;;;8.56;97.31;99614.94;4931313;28;20302;-75
2022/02/15 09:04:58;;;;;;;11.18;2.33;;;;;;;8.58;96.51;99606.50;4956220;28;20059;-76
2022/02/15 09:07:28;;;;;;;24.92;2.65;;;;;;;8.69;96.65;99638.13;4933405;29;20023;-75
2022/02/15 09:09:58;;;;;;;12.93;1.73;;;;;;;8.62;96.08;99618.50;4956690;28;20054;-76
2022/02/15 09:12:24;;;;;;;9.35;2.25;;;;;;;8.73;96.45;99632.91;4938640;28;20034;-76
2022/02/15 09:14:50;;;;;;;14.25;2.15;;;;;;;8.70;95.74;99625.28;4956999;28;20027;-75
2022/02/15 09:17:17;;;;;;;11.80;1.92;;;;;;;8.56;95.17;99625.84;4940285;29;20039;-74
2022/02/15 09:19:48;;;;;;;20.40;2.13;;;;;;;8.51;95.37;99630.47;4938101;29;20027;-76
2022/02/15 09:22:23;;;;;;;;;;;;;;;;;;;;;
2022/02/15 09:24:51;;;;;;;11.65;1.65;;;;;;;8.20;95.12;99614.88;4953322;28;20061;-75
2022/02/15 09:27:16;;;;;;;20.48;1.95;;;;;;;8.03;95.21;99615.13;4954388;28;20969;-75
2022/02/15 09:29:44;;;;;;;8.13;1.25;;;;;;;7.96;95.92;99630.09;4931732;29;20031;-75
2022/02/15 09:32:15;;;;;;;13.05;1.80;;;;;;;7.85;96.94;99608.25;4954363;28;20347;-74
2022/02/15 09:34:40;;;;;;;5.70;1.85;;;;;;;7.93;97.02;99606.09;4947798;28;20037;-75
2022/02/15 09:37:06;;;;;;;7.45;1.52;;;;;;;7.93;96.89;99625.16;4954709;28;20035;-75
2022/02/15 09:39:40;;;;;;;18.52;2.05;;;;;;;7.91;97.28;99605.56;4925388;28;20027;-75
2022/02/15 09:42:05;;;;;;;16.48;2.67;;;;;;;7.94;97.43;99610.47;4942181;28;20034;-75
2022/02/15 09:44:33;;;;;;;10.43;1.90;;;;;;;7.90;97.76;99601.19;4943201;28;20500;-75
2022/02/15 09:46:59;;;;;;;15.05;2.03;;;;;;;7.88;97.90;99598.75;4933047;29;20043;-76
2022/02/15 09:49:48;;;;;;;12.77;1.92;;;;;;;7.88;98.29;99609.63;4950027;28;20439;-76
2022/02/15 09:52:23;;;;;;;29.45;3.95;;;;;;;7.80;98.31;99581.03;4948788;28;20370;-77
2022/02/15 09:54:52;;;;;;;;;;;;;;;7.91;98.87;99591.94;4925459;29;20032;-76
2022/02/15 09:57:29;;;;;;;8.75;1.50;;;;;;;7.84;98.64;99595.75;4938596;29;19914;-77
2022/02/15 10:00:02;;;;;;;8.57;1.90;;;;;;;7.82;98.64;99587.03;4957783;28;20031;-76
2022/02/15 10:02:37;;;;;;;13.88;1.85;;;;;;;7.83;98.68;99599.56;4943537;28;20046;-75
2022/02/15 10:05:03;;;;;;;8.02;1.70;;;;;;;7.82;99.50;99589.75;4954794;28;20035;-76
2022/02/15 10:07:28;;;;;;;14.07;2.45;;;;;;;7.86;99.43;99584.59;4938803;28;20155;-76
2022/02/15 10:09:56;;;;;;;11.27;2.13;;;;;;;7.91;99.36;99548.41;4957731;28;20047;-75
2022/02/15 10:12:28;;;;;;;6.72;1.70;;;;;;;7.91;99.54;99559.28;4954038;28;20545;-76
2022/02/15 10:14:55;;;;;;;18.60;1.42;;;;;;;7.96;99.93;99568.28;4940702;29;20034;-75
2022/02/15 10:17:22;;;;;;;15.82;2.85;;;;;;;7.96;99.99;99575.66;4955131;28;20106;-77
2022/02/15 10:19:54;;;;;;;17.60;2.33;;;;;;;7.96;99.82;99551.13;4945249;29;20027;-77
2022/02/15 10:22:34;;;;;;;23.85;2.33;;;;;;;7.98;100.00;99527.97;4944686;28;20027;-78
2022/02/15 10:25:00;;;;;;;34.47;2.95;;;;;;;8.00;100.00;99547.59;4931591;29;20055;-77
2022/02/15 10:27:29;;;;;;;8.18;1.70;;;;;;;8.12;100.00;99539.16;4938828;28;20062;-76
2022/02/15 10:29:58;;;;;;;11.43;2.60;;;;;;;8.09;100.00;99539.72;4951593;28;20034;-76
2022/02/15 10:32:33;;;;;;;14.82;1.50;;;;;;;8.08;99.99;99516.28;4952430;28;20051;-76
2022/02/15 10:35:10;;;;;;;8.73;1.95;;;;;;;8.06;100.00;99518.47;4940430;29;20380;-75
2022/02/15 10:37:36;;;;;;;13.35;2.47;;;;;;;8.06;100.00;99513.03;4957716;28;20540;-78
2022/02/15 10:40:13;;;;;;;21.35;2.45;;;;;;;8.16;100.00;99523.09;4936283;28;20074;-78
2022/02/15 10:42:38;;;;;;;16.33;2.05;;;;;;;8.15;100.00;99500.50;4938388;29;20130;-77
2022/02/15 10:45:11;;;;;;;17.58;2.35;;;;;;;8.25;100.00;99507.84;4951463;28;20093;-76
2022/02/15 10:47:41;;;;;;;13.63;2.03;;;;;;;8.28;100.00;99515.47;4960454;28;20099;-78
2022/02/15 10:50:12;;;;;;;19.83;3.10;;;;;;;8.32;100.00;99518.47;4953550;28;20481;-77
2022/02/15 10:52:42;;;;;;;8.68;1.80;;;;;;;8.29;100.00;99510.84;4944704;28;20469;-78
2022/02/15 10:55:20;;;;;;;20.35;2.63;;;;;;;8.28;100.00;99496.41;4946963;28;20093;-77
2022/02/15 10:58:04;;;;;;;;;;;;;;;;;;;;;
2022/02/15 11:00:30;;;;;;;22.08;2.10;;;;;;;8.34;100.00;99495.31;4956694;28;20031;-76
2022/02/15 11:02:56;;;;;;;15.30;1.42;;;;;;;8.41;100.00;99508.66;4936828;29;20107;-77
2022/02/15 11:05:24;;;;;;;9.90;1.52;;;;;;;8.39;100.00;99521.72;4949359;28;20138;-77
2022/02/15 11:07:52;;;;;;;14.25;2.13;;;;;;;8.42;100.00;99499.38;4936345;28;20042;-76
2022/02/15 11:10:39;;;;;;;10.95;2.40;;;;;;;8.48;100.00;99497.50;4949775;28;20031;-77
2022/02/15 11:13:05;;;;;;;7.38;1.70;;;;;;;8.51;100.00;99525.03;4943831;28;20027;-75
2022/02/15 11:19:27;;;;;;;8.88;1.33;;;;;;;8.48;100.00;99498.31;4950220;28;20486;-75
2022/02/15 11:21:54;;;;;;;2.60;0.70;;;;;;;8.47;100.00;99493.97;4950637;28;20047;-75
2022/02/15 11:24:20;;;;;;;4.07;1.27;;;;;;;8.50;100.00;99501.59;4951174;28;20055;-76
2022/02/15 11:26:47;;;;;;;10.05;1.33;;;;;;;8.51;100.00;99486.88;4938703;29;20126;-77
2022/02/15 11:29:21;;;;;;;5.50;1.42;;;;;;;8.59;100.00;99511.94;4953721;28;20034;-75
2022/02/15 11:31:46;;;;;;;4.68;0.88;;;;;;;8.58;99.90;99469.44;4937253;29;20022;-76
2022/02/15 11:34:13;;;;;;;4.75;0.80;;;;;;;8.56;100.00;99467.78;4917466;28;20378;-77
2022/02/15 11:36:59;;;;;;;5.60;1.08;;;;;;;8.63;99.91;99472.97;4917257;28;20382;-77
2022/02/15 11:39:33;;;;;;;4.60;0.90;;;;;;;8.66;100.00;99488.75;4937637;28;20043;-77
2022/02/15 11:42:02;;;;;;;10.38;1.00;;;;;;;8.70;100.00;99483.56;4930111;29;20494;-76
2022/02/15 11:44:31;;;;;;;6.75;1.10;;;;;;;8.69;99.83;99481.94;4948510;28;20024;-76
2022/02/15 11:47:11;;;;;;;5.80;0.93;;;;;;;8.71;99.93;99474.28;4945768;28;20121;-79
2022/02/15 11:49:54;;;;;;;9.93;1.13;;;;;;;8.69;99.64;99457.41;4950309;28;20143;-76
2022/02/15 11:52:21;;;;;;;5.03;1.10;;;;;;;8.74;100.00;99455.47;4938140;29;20087;-77
2022/02/15 11:54:46;;;;;;;4.22;0.80;;;;;;;8.69;99.85;99454.69;4925948;29;20030;-76
2022/02/15 11:57:14;;;;;;;7.03;1.25;;;;;;;8.71;99.85;99460.66;4932411;28;20114;-77
2022/02/15 11:59:47;;;;;;;8.52;1.40;;;;;;;8.71;100.00;99477.03;4955381;28;20023;-78